Time,TemperatureF,DewpointF,PressureIn,WindDirection,WindDirectionDegrees,WindSpeedMPH,WindSpeedGustMPH,Humidity,HourlyPrecipIn,Conditions,Clouds,dailyrainin,SoftwareType,DateUTC
2013-01-19 00:00:00,64.1,44.5,30.17,South,180,1.0,3.0,49,0.00,CL,CL,0.00,WeatherDisplay:10.37,2013-01-19 06:00:00,
2013-01-19 00:03:00,33.6,31.0,30.28,NW,315,1.1,0.0,90,0.00,CLR,,0.00,WeatherDisplay:10.37,2013-01-19 06:03:00,
2013-01-19 00:08:00,33.6,31.0,30.27,NW,315,1.1,0.0,90,0.00,CLR,,0.00,WeatherDisplay:10.37,2013-01-19 06:08:00,
2013-01-19 00:13:00,33.4,30.8,30.28,NW,315,0.0,0.0,90,0.00,CLR,,0.00,WeatherDisplay:10.37,2013-01-19 06:13:00,
2013-01-19 00:18:00,33.3,30.6,30.27,NW,315,1.1,0.0,90,0.00,CLR,,0.00,WeatherDisplay:10.37,2013-01-19 06:18:00,
2013-01-19 00:23:00,33.3,30.6,30.28,NW,315,0.0,0.0,90,0.00,CLR,,0.00,WeatherDisplay:10.37,2013-01-19 06:23:00,
2013-01-19 00:29:00,33.1,30.5,30.28,NW,315,0.0,0.0,90,0.00,CLR,,0.00,WeatherDisplay:10.37,2013-01-19 06:29:00,
2013-01-19 00:34:00,33.1,30.5,30.28,NW,315,0.0,0.0,90,0.00,CLR,,0.00,WeatherDisplay:10.37,2013-01-19 06:34:00,
2013-01-19 00:39:00,32.9,30.6,30.28,NW,315,0.0,0.0,91,0.00,CLR,,0.00,WeatherDisplay:10.37,2013-01-19 06:39:00,
2013-01-19 00:44:00,32.9,30.6,30.27,NW,315,0.0,0.0,91,0.00,CLR,,0.00,WeatherDisplay:10.37,2013-01-19 06:44:00,
2013-01-19 00:49:00,32.7,30.4,30.28,NW,315,1.1,0.0,91,0.00,CLR,,0.00,WeatherDisplay:10.37,2013-01-19 06:49:00,
2013-01-19 00:54:00,32.7,30.4,30.27,NW,315,0.0,0.0,91,0.00,CLR,,0.00,WeatherDisplay:10.37,2013-01-19 06:54:00,
2013-01-19 01:00:00,32.5,30.2,30.28,NW,315,0.0,0.0,91,0.00,CLR,,0.00,WeatherDisplay:10.37,2013-01-19 07:00:00,
2013-01-19 01:05:00,32.5,30.2,30.28,NW,315,0.0,0.0,91,0.00,CLR,,0.00,WeatherDisplay:10.37,2013-01-19 07:05:00,
2013-01-19 01:10:00,32.7,30.4,30.28,NW,315,1.1,0.0,91,0.00,CLR,,0.00,WeatherDisplay:10.37,2013-01-19 07:10:00,
2013-01-19 01:15:00,32.9,30.8,30.28,NE,45,1.1,0.0,92,0.00,CLR,,0.00,WeatherDisplay:10.37,2013-01-19 07:15:00,
2013-01-19 01:20:00,32.9,30.8,30.28,NE,45,0.0,0.0,92,0.00,CLR,,0.00,WeatherDisplay:10.37,2013-01-19 07:20:00,
2013-01-19 01:25:00,33.1,31.0,30.28,NE,45,1.1,0.0,92,0.00,CLR,,0.00,WeatherDisplay:10.37,2013-01-19 07:25:00,
2013-01-19 01:30:00,33.1,31.0,30.28,NE,45,1.1,1.1,92,0.00,CLR,,0.00,WeatherDisplay:10.37,2013-01-19 07:30:00,
2013-01-19 01:36:00,33.3,31.2,30.27,NE,45,1.1,1.1,92,0.00,CLR,,0.00,WeatherDisplay:10.37,2013-01-19 07:36:00,
2013-01-19 01:41:00,33.3,31.5,30.27,NE,45,1.1,1.1,93,0.00,CLR,,0.00,WeatherDisplay:10.37,2013-01-19 07:41:00,
2013-01-19 01:46:00,33.3,31.5,30.28,NE,45,0.0,0.0,93,0.00,CLR,,0.00,WeatherDisplay:10.37,2013-01-19 07:46:00,
2013-01-19 01:53:00,33.3,31.5,30.27,NE,45,1.1,0.0,93,0.00,CLR,,0.00,WeatherDisplay:10.37,2013-01-19 07:53:00,
2013-01-19 01:58:00,33.3,31.5,30.28,NE,45,1.1,0.0,93,0.00,CLR,,0.00,WeatherDisplay:10.37,2013-01-19 07:58:00,
2013-01-19 02:00:00,60.6,41.9,30.14,SE,135,1.0,2.0,50,0.00,CL,CL,0.00,WeatherDisplay:10.37,2013-01-19 08:00:00,
2013-01-19 02:03:00,33.3,31.5,30.27,NE,45,1.1,0.0,93,0.00,CLR,,0.00,WeatherDisplay:10.37,2013-01-19 08:03:00,
2013-01-19 02:08:00,33.1,31.3,30.27,NE,45,1.1,0.0,93,0.00,CLR,,0.00,WeatherDisplay:10.37,2013-01-19 08:08:00,
2013-01-19 02:13:00,33.1,31.3,30.27,NE,45,0.0,0.0,93,0.00,CLR,,0.00,WeatherDisplay:10.37,2013-01-19 08:13:00,
2013-01-19 02:18:00,32.9,31.1,30.27,NE,45,1.1,0.0,93,0.00,CLR,,0.00,WeatherDisplay:10.37,2013-01-19 08:18:00,
2013-01-19 02:23:00,32.9,31.1,30.27,NE,45,1.1,0.0,93,0.00,CLR,,0.00,WeatherDisplay:10.37,2013-01-19 08:23:00,
2013-01-19 02:29:00,33.1,31.3,30.27,NE,45,1.1,0.0,93,0.00,CLR,,0.00,WeatherDisplay:10.37,2013-01-19 08:29:00,
2013-01-19 02:35:00,33.0,31.2,30.27,NE,45,0.0,2.0,93,0.00,CLR,,0.00,WeatherDisplay:10.37,2013-01-19 08:35:00,
2013-01-19 02:40:00,33.0,31.2,30.27,NE,45,0.0,1.0,93,0.00,CLR,,0.00,WeatherDisplay:10.37,2013-01-19 08:40:00,
2013-01-19 02:45:00,33.1,31.3,30.27,NE,45,0.0,2.0,93,0.00,CLR,,0.00,WeatherDisplay:10.37,2013-01-19 08:45:00,
2013-01-19 02:50:00,33.1,31.3,30.26,NE,45,0.0,1.0,93,0.00,CLR,,0.00,WeatherDisplay:10.37,2013-01-19 08:50:00,
2013-01-19 02:55:00,33.1,31.3,30.26,NE,45,0.0,0.0,93,0.00,CLR,,0.00,WeatherDisplay:10.37,2013-01-19 08:55:00,
2013-01-19 03:00:00,33.1,31.5,30.27,NE,45,0.0,0.0,94,0.00,CLR,,0.00,WeatherDisplay:10.37,2013-01-19 09:00:00,
2013-01-19 03:05:00,33.1,31.5,30.26,NE,45,1.1,0.0,94,0.00,CLR,,0.00,WeatherDisplay:10.37,2013-01-19 09:05:00,
2013-01-19 03:10:00,33.3,31.7,30.26,SE,135,1.1,0.0,94,0.00,CLR,,0.00,WeatherDisplay:10.37,2013-01-19 09:10:00,
2013-01-19 03:15:00,33.3,31.7,30.26,SE,135,0.0,0.0,94,0.00,CLR,,0.00,WeatherDisplay:10.37,2013-01-19 09:15:00,
2013-01-19 03:20:00,33.3,31.7,30.26,East,90,0.0,0.0,94,0.00,CLR,,0.00,WeatherDisplay:10.37,2013-01-19 09:20:00,
2013-01-19 03:25:00,33.3,31.7,30.26,North,0,1.1,0.0,94,0.00,CLR,,0.00,WeatherDisplay:10.37,2013-01-19 09:25:00,
2013-01-19 03:30:00,33.1,31.5,30.26,North,0,1.1,0.0,94,0.00,CLR,,0.00,WeatherDisplay:10.37,2013-01-19 09:30:00,
2013-01-19 03:35:00,32.9,31.4,30.26,North,0,1.1,0.0,94,0.00,CLR,,0.00,WeatherDisplay:10.37,2013-01-19 09:35:00,
2013-01-19 03:40:00,32.9,31.4,30.25,NE,45,1.1,1.1,94,0.00,CLR,,0.00,WeatherDisplay:10.37,2013-01-19 09:40:00,
2013-01-19 03:45:00,32.9,31.4,30.25,NE,45,1.1,0.0,94,0.00,CLR,,0.00,WeatherDisplay:10.37,2013-01-19 09:45:00,
2013-01-19 03:50:00,32.9,31.4,30.25,NE,45,0.0,0.0,94,0.00,CLR,,0.00,WeatherDisplay:10.37,2013-01-19 09:50:00,
2013-01-19 03:55:00,32.9,31.6,30.25,NE,45,0.0,0.0,95,0.00,CLR,,0.00,WeatherDisplay:10.37,2013-01-19 09:55:00,
2013-01-19 04:00:00,32.9,31.6,30.25,NE,45,1.1,0.0,95,0.00,CLR,,0.00,WeatherDisplay:10.37,2013-01-19 10:00:00,
2013-01-19 04:05:00,32.9,31.6,30.25,NE,45,1.1,0.0,95,0.00,CLR,,0.00,WeatherDisplay:10.37,2013-01-19 10:05:00,
2013-01-19 04:10:00,32.9,31.6,30.25,South,180,1.1,0.0,95,0.00,CLR,,0.00,WeatherDisplay:10.37,2013-01-19 10:10:00,
2013-01-19 04:15:00,32.9,31.6,30.25,SW,225,1.1,0.0,95,0.00,CLR,,0.00,WeatherDisplay:10.37,2013-01-19 10:15:00,
2013-01-19 04:20:00,32.7,31.4,30.25,SW,225,0.0,0.0,95,0.00,CLR,,0.00,WeatherDisplay:10.37,2013-01-19 10:20:00,
2013-01-19 04:25:00,32.7,31.4,30.25,SW,225,1.1,0.0,95,0.00,CLR,,0.00,WeatherDisplay:10.37,2013-01-19 10:25:00,
2013-01-19 04:30:00,32.5,31.3,30.25,SW,225,1.1,0.0,95,0.00,CLR,,0.00,WeatherDisplay:10.37,2013-01-19 10:30:00,
2013-01-19 04:35:00,32.5,31.3,30.25,SW,225,1.1,0.0,95,0.00,CLR,,0.00,WeatherDisplay:10.37,2013-01-19 10:35:00,
2013-01-19 04:40:00,32.4,31.1,30.25,SW,225,1.1,0.0,95,0.00,CLR,,0.00,WeatherDisplay:10.37,2013-01-19 10:40:00,
2013-01-19 04:45:00,32.2,30.9,30.25,SW,225,0.0,0.0,95,0.00,CLR,,0.00,WeatherDisplay:10.37,2013-01-19 10:45:00,
2013-01-19 04:50:00,32.0,30.7,30.25,SW,225,0.0,0.0,95,0.00,CLR,,0.00,WeatherDisplay:10.37,2013-01-19 10:50:00,
2013-01-19 04:55:00,31.8,30.6,30.25,SW,225,0.0,0.0,95,0.00,CLR,,0.00,WeatherDisplay:10.37,2013-01-19 10:55:00,
2013-01-19 05:00:00,31.8,30.6,30.25,SW,225,0.0,0.0,95,0.00,CLR,,0.00,WeatherDisplay:10.37,2013-01-19 11:00:00,
2013-01-19 05:05:00,31.8,30.6,30.25,SW,225,0.0,0.0,95,0.00,CLR,,0.00,WeatherDisplay:10.37,2013-01-19 11:05:00,
2013-01-19 05:10:00,31.3,30.0,30.25,SW,225,0.0,0.0,95,0.00,CLR,,0.00,WeatherDisplay:10.37,2013-01-19 11:10:00,
2013-01-19 06:00:00,46.4,40.6,30.14,East,90,0.0,1.0,80,0.00,CL,CL,0.00,WeatherDisplay:10.37,2013-01-19 12:00:00,
2013-01-19 06:48:00,31.1,30.1,30.25,North,0,1.1,0.0,96,0.00,CLR,,0.00,WeatherDisplay:10.37,2013-01-19 12:48:00,
2013-01-19 06:53:00,31.1,30.1,30.25,North,0,0.0,0.0,96,0.00,CLR,,0.00,WeatherDisplay:10.37,2013-01-19 12:53:00,
2013-01-19 06:58:00,31.1,30.1,30.25,North,0,0.0,0.0,96,0.00,CLR,,0.00,WeatherDisplay:10.37,2013-01-19 12:58:00,
2013-01-19 07:00:00,44.2,39.3,30.15,East,90,0.0,1.0,83,0.00,CL,CL,0.00,WeatherDisplay:10.37,2013-01-19 13:00:00,
2013-01-19 07:03:00,31.3,30.3,30.25,North,0,1.1,1.1,96,0.00,CLR,,0.00,WeatherDisplay:10.37,2013-01-19 13:03:00,
2013-01-19 07:08:00,31.1,30.1,30.25,North,0,1.1,0.0,96,0.00,CLR,,0.00,WeatherDisplay:10.37,2013-01-19 13:08:00,
2013-01-19 07:13:00,31.1,30.1,30.25,North,0,0.0,0.0,96,0.00,CLR,,0.00,WeatherDisplay:10.37,2013-01-19 13:13:00,
2013-01-19 07:18:00,31.1,30.1,30.25,North,0,0.0,0.0,96,0.00,CLR,,0.00,WeatherDisplay:10.37,2013-01-19 13:18:00,
2013-01-19 07:23:00,31.1,30.1,30.25,North,0,1.1,1.1,96,0.00,CLR,,0.00,WeatherDisplay:10.37,2013-01-19 13:23:00,
2013-01-19 07:28:00,31.3,30.3,30.25,North,0,1.1,1.1,96,0.00,CLR,,0.00,WeatherDisplay:10.37,2013-01-19 13:28:00,
2013-01-19 07:33:00,31.6,30.6,30.25,North,0,1.1,0.0,96,0.00,CLR,,0.00,WeatherDisplay:10.37,2013-01-19 13:33:00,
2013-01-19 07:38:00,31.8,30.8,30.25,North,0,1.1,0.0,96,0.00,CLR,,0.00,WeatherDisplay:10.37,2013-01-19 13:38:00,
2013-01-19 07:43:00,32.0,31.0,30.24,North,0,0.0,0.0,96,0.00,CLR,,0.00,WeatherDisplay:10.37,2013-01-19 13:43:00,
2013-01-19 07:48:00,32.0,31.0,30.24,North,0,0.0,0.0,96,0.00,CLR,,0.00,WeatherDisplay:10.37,2013-01-19 13:48:00,
2013-01-19 07:53:00,32.2,31.4,30.25,NE,45,1.1,0.0,97,0.00,CLR,,0.00,WeatherDisplay:10.37,2013-01-19 13:53:00,
2013-01-19 07:58:00,32.5,31.8,30.25,NE,45,0.0,0.0,97,0.00,CLR,,0.00,WeatherDisplay:10.37,2013-01-19 13:58:00,
2013-01-19 08:00:00,41.9,38.0,30.16,North,0,0.0,1.0,86,0.00,CL,CL,0.00,WeatherDisplay:10.37,2013-01-19 14:00:00,
2013-01-19 08:03:00,32.5,31.8,30.25,NE,45,0.0,0.0,97,0.00,CLR,,0.00,WeatherDisplay:10.37,2013-01-19 14:03:00,
2013-01-19 08:08:00,32.9,32.1,30.25,North,0,1.1,0.0,97,0.00,CLR,,0.00,WeatherDisplay:10.37,2013-01-19 14:08:00,
2013-01-19 08:13:00,33.1,32.3,30.25,North,0,0.0,0.0,97,0.00,CLR,,0.00,WeatherDisplay:10.37,2013-01-19 14:13:00,
2013-01-19 08:18:00,33.4,32.7,30.25,North,0,0.0,0.0,97,0.00,CLR,,0.00,WeatherDisplay:10.37,2013-01-19 14:18:00,
2013-01-19 08:24:00,33.8,33.0,30.25,North,0,0.0,0.0,97,0.00,CLR,,0.00,WeatherDisplay:10.37,2013-01-19 14:24:00,
2013-01-19 08:29:00,33.8,33.0,30.25,North,0,0.0,0.0,97,0.00,CLR,,0.00,WeatherDisplay:10.37,2013-01-19 14:29:00,
2013-01-19 08:34:00,33.8,33.0,30.25,North,0,0.0,0.0,97,0.00,CLR,,0.00,WeatherDisplay:10.37,2013-01-19 14:34:00,
2013-01-19 08:40:00,35.1,34.3,30.25,North,0,0.0,0.0,97,0.00,CLR,,0.00,WeatherDisplay:10.37,2013-01-19 14:40:00,
2013-01-19 08:45:00,36.0,35.2,30.26,North,0,0.0,0.0,97,0.00,CLR,,0.00,WeatherDisplay:10.37,2013-01-19 14:45:00,
2013-01-19 08:50:00,36.5,36.0,30.26,North,0,0.0,0.0,98,0.00,CLR,,0.00,WeatherDisplay:10.37,2013-01-19 14:50:00,
2013-01-19 08:55:00,37.4,36.9,30.26,North,0,0.0,0.0,98,0.00,CLR,,0.00,WeatherDisplay:10.37,2013-01-19 14:55:00,
2013-01-19 09:00:00,38.3,37.8,30.25,North,0,0.0,0.0,98,0.00,CLR,,0.00,WeatherDisplay:10.37,2013-01-19 15:00:00,
2013-01-19 09:05:00,38.5,38.0,30.26,North,0,0.0,0.0,98,0.00,CLR,,0.00,WeatherDisplay:10.37,2013-01-19 15:05:00,
2013-01-19 09:10:00,41.4,40.8,30.25,North,0,0.0,0.0,98,0.00,CLR,,0.00,WeatherDisplay:10.37,2013-01-19 15:10:00,
2013-01-19 09:15:00,42.1,41.6,30.26,SW,225,0.0,0.0,98,0.00,CLR,,0.00,WeatherDisplay:10.37,2013-01-19 15:15:00,
2013-01-19 09:20:00,43.2,42.6,30.26,SW,225,0.0,0.0,98,0.00,CLR,,0.00,WeatherDisplay:10.37,2013-01-19 15:20:00,
2013-01-19 09:25:00,43.7,43.2,30.26,West,270,0.0,0.0,98,0.00,CLR,,0.00,WeatherDisplay:10.37,2013-01-19 15:25:00,
2013-01-19 09:30:00,44.4,43.9,30.26,South,180,1.1,0.0,98,0.00,CLR,,0.00,WeatherDisplay:10.37,2013-01-19 15:30:00,
2013-01-19 09:35:00,45.3,44.5,30.27,SE,135,1.1,0.0,97,0.00,CLR,,0.00,WeatherDisplay:10.37,2013-01-19 15:35:00,
2013-01-19 09:40:00,46.6,44.7,30.27,SE,135,1.1,0.0,93,0.00,CLR,,0.00,WeatherDisplay:10.37,2013-01-19 15:40:00,
2013-01-19 09:45:00,47.7,44.9,30.27,SE,135,2.3,2.3,90,0.00,CLR,,0.00,WeatherDisplay:10.37,2013-01-19 15:45:00,
2013-01-19 09:50:00,48.2,45.1,30.28,West,270,1.1,0.0,89,0.00,CLR,,0.00,WeatherDisplay:10.37,2013-01-19 15:50:00,
2013-01-19 09:55:00,48.7,43.8,30.27,SE,135,3.5,3.5,83,0.00,CLR,,0.00,WeatherDisplay:10.37,2013-01-19 15:55:00,
2013-01-19 10:00:00,49.1,44.2,30.27,SE,135,1.1,0.0,83,0.00,CLR,,0.00,WeatherDisplay:10.37,2013-01-19 16:00:00,
2013-01-19 10:05:00,49.1,44.2,30.27,SE,135,1.1,0.0,83,0.00,CLR,,0.00,WeatherDisplay:10.37,2013-01-19 16:05:00,
2013-01-19 10:11:00,50.9,44.6,30.27,SW,225,2.3,2.3,79,0.00,CLR,,0.00,WeatherDisplay:10.37,2013-01-19 16:11:00,
2013-01-19 10:16:00,51.3,44.6,30.27,ESE,112,2.3,0.0,78,0.00,CLR,,0.00,WeatherDisplay:10.37,2013-01-19 16:16:00,
2013-01-19 10:21:00,51.4,44.5,30.27,South,180,2.3,2.3,77,0.00,CLR,,0.00,WeatherDisplay:10.37,2013-01-19 16:21:00,
2013-01-19 10:26:00,52.3,43.9,30.27,East,90,1.1,1.1,73,0.00,CLR,,0.00,WeatherDisplay:10.37,2013-01-19 16:26:00,
2013-01-19 10:31:00,53.6,44.8,30.27,South,180,2.3,0.0,72,0.00,CLR,,0.00,WeatherDisplay:10.37,2013-01-19 16:31:00,
2013-01-19 10:36:00,54.0,44.4,30.26,NW,315,2.3,0.0,70,0.00,CLR,,0.00,WeatherDisplay:10.37,2013-01-19 16:36:00,
2013-01-19 10:41:00,53.6,43.3,30.27,South,180,1.1,1.1,68,0.00,CLR,,0.00,WeatherDisplay:10.37,2013-01-19 16:41:00,
2013-01-19 10:46:00,53.2,43.3,30.26,NW,315,2.3,0.0,69,0.00,CLR,,0.00,WeatherDisplay:10.37,2013-01-19 16:46:00,
2013-01-19 10:52:00,54.9,44.1,30.26,South,180,3.5,3.5,67,0.00,CLR,,0.00,WeatherDisplay:10.37,2013-01-19 16:52:00,
2013-01-19 10:57:00,56.5,44.9,30.26,East,90,5.8,5.8,65,0.00,CLR,,0.00,WeatherDisplay:10.37,2013-01-19 16:57:00,
2013-01-19 11:00:00,38.5,36.4,30.17,West,270,0.0,1.0,92,0.00,CL,CL,0.00,WeatherDisplay:10.37,2013-01-19 17:00:00,
2013-01-19 11:02:00,56.8,44.4,30.26,East,90,1.1,0.0,63,0.00,CLR,,0.00,WeatherDisplay:10.37,2013-01-19 17:02:00,
2013-01-19 11:08:00,56.8,44.4,30.25,East,90,1.1,0.0,63,0.00,CLR,,0.00,WeatherDisplay:10.37,2013-01-19 17:08:00,
2013-01-19 11:17:00,55.8,43.3,30.25,SE,135,1.1,1.1,63,0.00,CLR,,0.00,WeatherDisplay:10.37,2013-01-19 17:17:00,
2013-01-19 11:24:00,56.1,42.8,30.24,SE,135,3.5,3.5,61,0.00,CLR,,0.00,WeatherDisplay:10.37,2013-01-19 17:24:00,
2013-01-19 11:30:00,56.2,43.3,30.24,SE,125,0.0,2.0,62,0.00,CLR,,0.00,WeatherDisplay:10.37,2013-01-19 17:30:00,
2013-01-19 11:35:00,58.2,43.9,30.23,SE,129,0.0,3.0,59,0.00,CLR,,0.00,WeatherDisplay:10.37,2013-01-19 17:35:00,
2013-01-19 11:40:00,60.0,43.7,30.23,SE,125,1.0,6.0,55,0.00,CLR,,0.00,WeatherDisplay:10.37,2013-01-19 17:40:00,
2013-01-19 11:46:00,61.2,45.3,30.22,SE,135,3.5,0.0,56,0.00,CLR,,0.00,WeatherDisplay:10.37,2013-01-19 17:46:00,
2013-01-19 11:52:00,62.2,45.4,30.22,SE,135,3.5,3.5,54,0.00,CLR,,0.00,WeatherDisplay:10.37,2013-01-19 17:52:00,
2013-01-19 11:58:00,62.2,45.4,30.22,East,90,2.3,0.0,54,0.00,CLR,,0.00,WeatherDisplay:10.37,2013-01-19 17:58:00,
2013-01-19 12:00:00,37.6,35.7,30.16,SE,135,1.0,1.0,93,0.00,CL,CL,0.00,WeatherDisplay:10.37,2013-01-19 18:00:00,
2013-01-19 12:03:00,62.4,45.1,30.21,SE,135,3.5,3.5,53,0.00,CLR,,0.00,WeatherDisplay:10.37,2013-01-19 18:03:00,
2013-01-19 12:08:00,63.1,45.7,30.21,NE,45,3.8,3.8,53,0.00,CLR,,0.00,WeatherDisplay:10.37,2013-01-19 18:08:00,
2013-01-19 12:13:00,63.7,45.7,30.20,NE,45,3.5,3.5,52,0.00,CLR,,0.00,WeatherDisplay:10.37,2013-01-19 18:13:00,
2013-01-19 12:18:00,63.9,45.9,30.20,SSE,158,3.5,0.0,52,0.00,CLR,,0.00,WeatherDisplay:10.37,2013-01-19 18:18:00,
2013-01-19 12:25:00,64.0,45.5,30.20,East,97,1.0,6.0,51,0.00,CLR,,0.00,WeatherDisplay:10.37,2013-01-19 18:25:00,
2013-01-19 12:30:00,64.2,46.2,30.20,South,180,3.5,0.0,52,0.00,CLR,,0.00,WeatherDisplay:10.37,2013-01-19 18:30:00,
2013-01-19 12:35:00,63.7,43.6,30.20,South,180,5.8,5.8,48,0.00,CLR,,0.00,WeatherDisplay:10.37,2013-01-19 18:35:00,
2013-01-19 12:40:00,63.7,45.7,30.19,East,90,3.5,3.5,52,0.00,CLR,,0.00,WeatherDisplay:10.37,2013-01-19 18:40:00,
2013-01-19 12:45:00,64.4,45.3,30.19,West,270,2.3,0.0,50,0.00,CLR,,0.00,WeatherDisplay:10.37,2013-01-19 18:45:00,
2013-01-19 12:50:00,64.0,43.9,30.18,SE,135,6.9,6.9,48,0.00,CLR,,0.00,WeatherDisplay:10.37,2013-01-19 18:50:00,
2013-01-19 12:55:00,63.9,44.9,30.18,East,90,1.1,0.0,50,0.00,CLR,,0.00,WeatherDisplay:10.37,2013-01-19 18:55:00,
2013-01-19 13:00:00,36.9,35.3,30.17,West,270,0.0,1.0,94,0.00,CL,CL,0.00,WeatherDisplay:10.37,2013-01-19 19:00:00,
2013-01-19 13:01:00,64.0,44.5,30.17,SE,135,3.5,3.5,49,0.00,CLR,,0.00,WeatherDisplay:10.37,2013-01-19 19:01:00,
2013-01-19 13:06:00,64.0,44.5,30.17,SE,135,1.1,1.1,49,0.00,CLR,,0.00,WeatherDisplay:10.37,2013-01-19 19:06:00,
2013-01-19 13:11:00,64.6,44.4,30.17,SW,225,4.6,4.6,48,0.00,CLR,,0.00,WeatherDisplay:10.37,2013-01-19 19:11:00,
2013-01-19 13:18:00,64.4,45.9,30.17,SW,225,3.5,3.5,51,0.00,CLR,,0.00,WeatherDisplay:10.37,2013-01-19 19:18:00,
2013-01-19 13:24:00,64.8,44.1,30.17,SE,135,3.5,3.5,47,0.00,CLR,,0.00,WeatherDisplay:10.37,2013-01-19 19:24:00,
2013-01-19 13:29:00,64.9,45.3,30.16,East,90,3.5,0.0,49,0.00,CLR,,0.00,WeatherDisplay:10.37,2013-01-19 19:29:00,
2013-01-19 13:34:00,64.6,44.4,30.16,East,90,3.5,3.5,48,0.00,CLR,,0.00,WeatherDisplay:10.37,2013-01-19 19:34:00,
2013-01-19 13:40:00,63.5,43.5,30.16,SE,143,0.0,3.0,48,0.00,CLR,,0.00,WeatherDisplay:10.37,2013-01-19 19:40:00,
2013-01-19 13:45:00,63.1,44.7,30.16,NE,45,2.3,2.3,51,0.00,CLR,,0.00,WeatherDisplay:10.37,2013-01-19 19:45:00,
2013-01-19 13:50:00,63.1,43.7,30.16,West,270,4.6,4.6,49,0.00,CLR,,0.00,WeatherDisplay:10.37,2013-01-19 19:50:00,
2013-01-19 13:55:00,62.2,43.4,30.15,NW,315,1.1,0.0,50,0.00,CLR,,0.00,WeatherDisplay:10.37,2013-01-19 19:55:00,
2013-01-19 14:00:00,61.9,43.0,30.15,SE,135,5.8,5.8,50,0.00,CLR,,0.00,WeatherDisplay:10.37,2013-01-19 20:00:00,
2013-01-19 14:05:00,61.9,43.0,30.15,SE,135,5.8,5.8,50,0.00,CLR,,0.00,WeatherDisplay:10.37,2013-01-19 20:05:00,
2013-01-19 14:11:00,61.9,42.5,30.15,SW,225,2.3,2.3,49,0.00,CLR,,0.00,WeatherDisplay:10.37,2013-01-19 20:11:00,
2013-01-19 14:16:00,61.5,43.2,30.15,NW,315,3.5,0.0,51,0.00,CLR,,0.00,WeatherDisplay:10.37,2013-01-19 20:16:00,
2013-01-19 14:22:00,60.8,42.5,30.15,East,90,2.3,0.0,51,0.00,CLR,,0.00,WeatherDisplay:10.37,2013-01-19 20:22:00,
2013-01-19 14:27:00,61.0,43.2,30.14,SE,135,2.3,2.3,52,0.00,CLR,,0.00,WeatherDisplay:10.37,2013-01-19 20:27:00,
2013-01-19 14:32:00,61.3,43.0,30.14,SW,225,2.3,0.0,51,0.00,CLR,,0.00,WeatherDisplay:10.37,2013-01-19 20:32:00,
2013-01-19 14:38:00,61.5,42.7,30.14,SW,225,3.5,3.5,50,0.00,CLR,,0.00,WeatherDisplay:10.37,2013-01-19 20:38:00,
2013-01-19 14:43:00,61.3,42.5,30.14,East,90,2.3,0.0,50,0.00,CLR,,0.00,WeatherDisplay:10.37,2013-01-19 20:43:00,
2013-01-19 14:48:00,61.2,41.8,30.14,SW,225,3.5,3.5,49,0.00,CLR,,0.00,WeatherDisplay:10.37,2013-01-19 20:48:00,
2013-01-19 14:53:00,60.6,41.9,30.14,South,180,2.3,0.0,50,0.00,CLR,,0.00,WeatherDisplay:10.37,2013-01-19 20:53:00,
2013-01-19 14:58:00,60.6,42.4,30.14,SE,135,2.3,2.3,51,0.00,CLR,,0.00,WeatherDisplay:10.37,2013-01-19 20:58:00,
2013-01-19 15:00:00,36.3,35.3,30.15,NW,315,0.0,0.0,96,0.00,CL,CL,0.00,WeatherDisplay:10.37,2013-01-19 21:00:00,
2013-01-19 15:03:00,60.6,41.9,30.14,SE,135,1.1,1.1,50,0.00,CLR,,0.00,WeatherDisplay:10.37,2013-01-19 21:03:00,
2013-01-19 15:09:00,61.5,42.7,30.14,SE,135,2.3,0.0,50,0.00,CLR,,0.00,WeatherDisplay:10.37,2013-01-19 21:09:00,
2013-01-19 15:14:00,61.3,42.5,30.14,SE,135,3.5,3.5,50,0.00,CLR,,0.00,WeatherDisplay:10.37,2013-01-19 21:14:00,
2013-01-19 15:19:00,61.0,43.2,30.14,SE,135,1.1,0.0,52,0.00,CLR,,0.00,WeatherDisplay:10.37,2013-01-19 21:19:00,
2013-01-19 15:24:00,61.2,43.4,30.14,East,90,2.3,2.3,52,0.00,CLR,,0.00,WeatherDisplay:10.37,2013-01-19 21:24:00,
2013-01-19 15:29:00,61.3,44.5,30.13,North,0,2.3,0.0,54,0.00,CLR,,0.00,WeatherDisplay:10.37,2013-01-19 21:29:00,
2013-01-19 15:34:00,61.9,45.0,30.14,SE,135,1.1,0.0,54,0.00,CLR,,0.00,WeatherDisplay:10.37,2013-01-19 21:34:00,
2013-01-19 15:39:00,61.5,42.7,30.13,NE,45,5.8,5.8,50,0.00,CLR,,0.00,WeatherDisplay:10.37,2013-01-19 21:39:00,
2013-01-19 15:45:00,61.2,42.9,30.13,SW,225,1.1,1.1,51,0.00,CLR,,0.00,WeatherDisplay:10.37,2013-01-19 21:45:00,
2013-01-19 15:50:00,60.6,42.9,30.13,South,180,2.3,0.0,52,0.00,CLR,,0.00,WeatherDisplay:10.37,2013-01-19 21:50:00,
2013-01-19 15:57:00,60.4,42.7,30.13,West,270,2.3,0.0,52,0.00,CLR,,0.00,WeatherDisplay:10.37,2013-01-19 21:57:00,
2013-01-19 16:00:00,35.6,34.6,30.15,West,270,0.0,0.0,96,0.00,CL,CL,0.00,WeatherDisplay:10.37,2013-01-19 22:00:00,
2013-01-19 16:02:00,60.3,42.6,30.13,East,90,1.1,0.0,52,0.00,CLR,,0.00,WeatherDisplay:10.37,2013-01-19 22:02:00,
2013-01-19 16:08:00,59.5,42.4,30.13,South,180,1.1,0.0,53,0.00,CLR,,0.00,WeatherDisplay:10.37,2013-01-19 22:08:00,
2013-01-19 16:13:00,59.4,42.2,30.13,SW,225,1.1,0.0,53,0.00,CLR,,0.00,WeatherDisplay:10.37,2013-01-19 22:13:00,
2013-01-19 16:18:00,59.0,42.4,30.13,SE,135,1.1,0.0,54,0.00,CLR,,0.00,WeatherDisplay:10.37,2013-01-19 22:18:00,
2013-01-19 16:23:00,59.0,42.8,30.13,SE,135,1.1,0.0,55,0.00,CLR,,0.00,WeatherDisplay:10.37,2013-01-19 22:23:00,
2013-01-19 16:28:00,59.0,42.8,30.13,SE,135,1.1,0.0,55,0.00,CLR,,0.00,WeatherDisplay:10.37,2013-01-19 22:28:00,
2013-01-19 16:35:00,59.0,43.3,30.12,South,180,1.1,0.0,56,0.00,CLR,,0.00,WeatherDisplay:10.37,2013-01-19 22:35:00,
2013-01-19 16:40:00,59.0,42.4,30.13,SSE,157,0.0,3.0,54,0.00,CLR,,0.00,WeatherDisplay:10.37,2013-01-19 22:40:00,
2013-01-19 16:45:00,59.0,42.8,30.13,SE,142,0.0,2.0,55,0.00,CLR,,0.00,WeatherDisplay:10.37,2013-01-19 22:45:00,
2013-01-19 16:50:00,58.7,43.0,30.13,SE,146,0.0,2.0,56,0.00,CLR,,0.00,WeatherDisplay:10.37,2013-01-19 22:50:00,
2013-01-19 16:55:00,58.3,43.1,30.13,South,180,1.1,0.0,57,0.00,CLR,,0.00,WeatherDisplay:10.37,2013-01-19 22:55:00,
2013-01-19 17:00:00,57.9,42.8,30.13,SE,135,1.1,0.0,57,0.00,CLR,,0.00,WeatherDisplay:10.37,2013-01-19 23:00:00,
2013-01-19 17:05:00,57.9,42.8,30.12,SE,135,0.0,0.0,57,0.00,CLR,,0.00,WeatherDisplay:10.37,2013-01-19 23:05:00,
2013-01-19 17:10:00,56.7,42.9,30.13,SE,135,0.0,0.0,60,0.00,CLR,,0.00,WeatherDisplay:10.37,2013-01-19 23:10:00,
2013-01-19 17:16:00,55.8,42.5,30.13,SE,135,0.0,0.0,61,0.00,CLR,,0.00,WeatherDisplay:10.37,2013-01-19 23:16:00,
2013-01-19 17:22:00,54.7,42.3,30.13,SE,135,0.0,0.0,63,0.00,CLR,,0.00,WeatherDisplay:10.37,2013-01-19 23:22:00,
2013-01-19 17:28:00,53.8,42.3,30.13,NW,315,0.0,0.0,65,0.00,CLR,,0.00,WeatherDisplay:10.37,2013-01-19 23:28:00,
2013-01-19 17:33:00,52.7,41.7,30.13,North,0,1.1,0.0,66,0.00,CLR,,0.00,WeatherDisplay:10.37,2013-01-19 23:33:00,
2013-01-19 17:38:00,52.2,41.9,30.13,North,0,1.1,0.0,68,0.00,CLR,,0.00,WeatherDisplay:10.37,2013-01-19 23:38:00,
2013-01-19 17:44:00,51.6,41.8,30.13,North,0,0.0,0.0,69,0.00,CLR,,0.00,WeatherDisplay:10.37,2013-01-19 23:44:00,
2013-01-19 17:49:00,51.1,41.3,30.14,North,0,0.0,0.0,69,0.00,CLR,,0.00,WeatherDisplay:10.37,2013-01-19 23:49:00,
2013-01-19 17:54:00,50.7,41.3,30.13,North,0,0.0,0.0,70,0.00,CLR,,0.00,WeatherDisplay:10.37,2013-01-19 23:54:00,
2013-01-19 18:00:00,50.2,41.1,30.13,North,0,0.0,1.0,71,0.00,CLR,,0.00,WeatherDisplay:10.37,2013-01-20 00:00:00,
2013-01-19 18:05:00,50.2,41.1,30.13,North,0,0.0,1.0,71,0.00,CLR,,0.00,WeatherDisplay:10.37,2013-01-20 00:05:00,
2013-01-19 18:10:00,49.1,40.8,30.13,North,0,0.0,0.0,73,0.00,CLR,,0.00,WeatherDisplay:10.37,2013-01-20 00:10:00,
2013-01-19 18:15:00,48.7,40.8,30.14,North,0,0.0,0.0,74,0.00,CLR,,0.00,WeatherDisplay:10.37,2013-01-20 00:15:00,
2013-01-19 18:20:00,48.4,40.8,30.13,North,0,0.0,0.0,75,0.00,CLR,,0.00,WeatherDisplay:10.37,2013-01-20 00:20:00,
2013-01-19 18:25:00,48.0,40.4,30.14,North,0,0.0,0.0,75,0.00,CLR,,0.00,WeatherDisplay:10.37,2013-01-20 00:25:00,
2013-01-19 18:30:00,47.5,40.3,30.14,North,0,0.0,0.0,76,0.00,CLR,,0.00,WeatherDisplay:10.37,2013-01-20 00:30:00,
2013-01-19 18:35:00,47.1,39.9,30.14,North,0,0.0,0.0,76,0.00,CLR,,0.00,WeatherDisplay:10.37,2013-01-20 00:35:00,
2013-01-19 18:40:00,46.8,40.0,30.14,North,0,0.0,2.0,77,0.00,CLR,,0.00,WeatherDisplay:10.37,2013-01-20 00:40:00,
2013-01-19 18:45:00,46.8,40.3,30.14,North,0,0.0,2.0,78,0.00,CLR,,0.00,WeatherDisplay:10.37,2013-01-20 00:45:00,
2013-01-19 18:50:00,46.8,40.6,30.14,North,0,0.0,0.0,79,0.00,CLR,,0.00,WeatherDisplay:10.37,2013-01-20 00:50:00,
2013-01-19 18:55:00,46.6,40.4,30.14,North,0,1.1,0.0,79,0.00,CLR,,0.00,WeatherDisplay:10.37,2013-01-20 00:55:00,
2013-01-19 19:00:00,46.4,40.6,30.14,East,90,1.1,0.0,80,0.00,CLR,,0.00,WeatherDisplay:10.37,2013-01-20 01:00:00,
2013-01-19 19:05:00,46.4,40.6,30.14,East,84,0.0,1.0,80,0.00,CLR,,0.00,WeatherDisplay:10.37,2013-01-20 01:05:00,
2013-01-19 19:10:00,45.9,40.0,30.14,NW,315,1.1,0.0,80,0.00,CLR,,0.00,WeatherDisplay:10.37,2013-01-20 01:10:00,
2013-01-19 19:15:00,45.9,40.4,30.14,NNW,332,0.0,2.0,81,0.00,CLR,,0.00,WeatherDisplay:10.37,2013-01-20 01:15:00,
2013-01-19 19:20:00,45.5,40.0,30.14,NW,315,0.0,0.0,81,0.00,CLR,,0.00,WeatherDisplay:10.37,2013-01-20 01:20:00,
2013-01-19 19:26:00,45.1,39.7,30.14,NW,315,1.1,0.0,81,0.00,CLR,,0.00,WeatherDisplay:10.37,2013-01-20 01:26:00,
2013-01-19 19:32:00,44.8,39.6,30.14,NW,315,0.0,0.0,82,0.00,CLR,,0.00,WeatherDisplay:10.37,2013-01-20 01:32:00,
2013-01-19 19:37:00,44.8,39.6,30.15,East,90,1.1,0.0,82,0.00,CLR,,0.00,WeatherDisplay:10.37,2013-01-20 01:37:00,
2013-01-19 19:42:00,44.8,39.6,30.14,East,90,0.0,0.0,82,0.00,CLR,,0.00,WeatherDisplay:10.37,2013-01-20 01:42:00,
2013-01-19 19:48:00,44.6,39.8,30.15,East,90,1.1,0.0,83,0.00,CLR,,0.00,WeatherDisplay:10.37,2013-01-20 01:48:00,
2013-01-19 19:54:00,44.4,39.6,30.15,East,90,1.1,1.1,83,0.00,CLR,,0.00,WeatherDisplay:10.37,2013-01-20 01:54:00,
2013-01-19 19:59:00,44.2,39.4,30.15,East,90,1.1,0.0,83,0.00,CLR,,0.00,WeatherDisplay:10.37,2013-01-20 01:59:00,
2013-01-19 20:00:00,39.6,39.1,30.17,North,0,0.0,0.0,98,0.00,CL,CL,0.00,WeatherDisplay:10.37,2013-01-20 02:00:00,
2013-01-19 20:05:00,44.1,39.2,30.14,East,90,1.1,0.0,83,0.00,CLR,,0.00,WeatherDisplay:10.37,2013-01-20 02:05:00,
2013-01-19 20:10:00,44.2,39.7,30.14,East,90,0.0,1.0,84,0.00,CLR,,0.00,WeatherDisplay:10.37,2013-01-20 02:10:00,
2013-01-19 20:15:00,44.0,39.5,30.14,East,90,0.0,2.0,84,0.00,CLR,,0.00,WeatherDisplay:10.37,2013-01-20 02:15:00,
2013-01-19 20:20:00,43.9,39.4,30.14,East,90,1.1,0.0,84,0.00,CLR,,0.00,WeatherDisplay:10.37,2013-01-20 02:20:00,
2013-01-19 20:26:00,43.5,39.0,30.14,North,0,1.1,1.1,84,0.00,CLR,,0.00,WeatherDisplay:10.37,2013-01-20 02:26:00,
2013-01-19 20:31:00,43.2,38.7,30.15,NE,45,1.1,0.0,84,0.00,CLR,,0.00,WeatherDisplay:10.37,2013-01-20 02:31:00,
2013-01-19 20:36:00,43.0,38.8,30.15,NE,45,0.0,0.0,85,0.00,CLR,,0.00,WeatherDisplay:10.37,2013-01-20 02:36:00,
2013-01-19 20:42:00,42.8,38.6,30.15,North,0,1.1,0.0,85,0.00,CLR,,0.00,WeatherDisplay:10.37,2013-01-20 02:42:00,
2013-01-19 20:47:00,42.4,38.2,30.15,North,0,1.1,0.0,85,0.00,CLR,,0.00,WeatherDisplay:10.37,2013-01-20 02:47:00,
2013-01-19 20:52:00,42.1,37.9,30.15,North,0,1.1,1.1,85,0.00,CLR,,0.00,WeatherDisplay:10.37,2013-01-20 02:52:00,
2013-01-19 20:58:00,41.9,38.0,30.15,North,0,1.1,0.0,86,0.00,CLR,,0.00,WeatherDisplay:10.37,2013-01-20 02:58:00,
2013-01-19 21:00:00,50.1,49.9,30.18,SW,225,0.0,1.0,99,0.00,CL,CL,0.00,WeatherDisplay:10.37,2013-01-20 03:00:00,
2013-01-19 21:04:00,41.7,37.8,30.15,North,0,1.1,0.0,86,0.00,CLR,,0.00,WeatherDisplay:10.37,2013-01-20 03:04:00,
2013-01-19 21:09:00,41.7,38.1,30.15,SE,135,1.1,0.0,87,0.00,CLR,,0.00,WeatherDisplay:10.37,2013-01-20 03:09:00,
2013-01-19 21:14:00,41.7,38.1,30.15,SE,135,0.0,0.0,87,0.00,CLR,,0.00,WeatherDisplay:10.37,2013-01-20 03:14:00,
2013-01-19 21:19:00,41.5,38.0,30.15,North,0,1.1,0.0,87,0.00,CLR,,0.00,WeatherDisplay:10.37,2013-01-20 03:19:00,
2013-01-19 21:24:00,41.4,37.8,30.15,North,0,1.1,1.1,87,0.00,CLR,,0.00,WeatherDisplay:10.37,2013-01-20 03:24:00,
2013-01-19 21:30:00,41.0,37.7,30.15,North,0,1.1,0.0,88,0.00,CLR,,0.00,WeatherDisplay:10.37,2013-01-20 03:30:00,
2013-01-19 21:36:00,41.0,37.7,30.15,North,0,1.1,0.0,88,0.00,CLR,,0.00,WeatherDisplay:10.37,2013-01-20 03:36:00,
2013-01-19 21:42:00,41.0,38.0,30.15,East,90,1.1,0.0,89,0.00,CLR,,0.00,WeatherDisplay:10.37,2013-01-20 03:42:00,
2013-01-19 21:47:00,41.2,38.2,30.16,NE,45,1.1,0.0,89,0.00,CLR,,0.00,WeatherDisplay:10.37,2013-01-20 03:47:00,
2013-01-19 21:52:00,41.2,38.2,30.16,NW,315,1.1,0.0,89,0.00,CLR,,0.00,WeatherDisplay:10.37,2013-01-20 03:52:00,
2013-01-19 21:57:00,41.0,38.0,30.16,East,90,1.1,0.0,89,0.00,CLR,,0.00,WeatherDisplay:10.37,2013-01-20 03:57:00,
2013-01-19 22:00:00,62.2,54.2,30.17,WSW,248,0.0,1.0,75,0.00,CL,CL,0.00,WeatherDisplay:10.37,2013-01-20 04:00:00,
2013-01-19 22:02:00,41.0,38.0,30.16,East,90,1.1,0.0,89,0.00,CLR,,0.00,WeatherDisplay:10.37,2013-01-20 04:02:00,
2013-01-19 22:08:00,41.0,38.0,30.16,East,90,1.1,0.0,89,0.00,CLR,,0.00,WeatherDisplay:10.37,2013-01-20 04:08:00,
2013-01-19 22:13:00,40.6,37.9,30.16,East,90,1.1,0.0,90,0.00,CLR,,0.00,WeatherDisplay:10.37,2013-01-20 04:13:00,
2013-01-19 22:18:00,40.6,37.9,30.16,East,90,1.1,0.0,90,0.00,CLR,,0.00,WeatherDisplay:10.37,2013-01-20 04:18:00,
2013-01-19 22:23:00,40.5,37.8,30.16,East,90,1.1,0.0,90,0.00,CLR,,0.00,WeatherDisplay:10.37,2013-01-20 04:23:00,
2013-01-19 22:30:00,40.3,37.6,30.17,East,90,0.0,2.0,90,0.00,CLR,,0.00,WeatherDisplay:10.37,2013-01-20 04:30:00,
2013-01-19 22:35:00,40.1,37.4,30.16,ENE,61,0.0,2.0,90,0.00,CLR,,0.00,WeatherDisplay:10.37,2013-01-20 04:35:00,
2013-01-19 22:40:00,40.3,37.6,30.16,SW,215,0.0,2.0,90,0.00,CLR,,0.00,WeatherDisplay:10.37,2013-01-20 04:40:00,
2013-01-19 22:45:00,40.1,37.7,30.16,South,180,0.0,1.0,91,0.00,CLR,,0.00,WeatherDisplay:10.37,2013-01-20 04:45:00,
2013-01-19 22:50:00,40.1,37.7,30.16,South,180,0.0,1.0,91,0.00,CLR,,0.00,WeatherDisplay:10.37,2013-01-20 04:50:00,
2013-01-19 22:56:00,40.1,37.7,30.17,North,0,1.1,0.0,91,0.00,CLR,,0.00,WeatherDisplay:10.37,2013-01-20 04:56:00,
2013-01-19 23:00:00,39.9,37.5,30.17,SE,135,1.1,0.0,91,0.00,CLR,,0.00,WeatherDisplay:10.37,2013-01-20 05:00:00,
2013-01-19 23:02:00,39.9,37.5,30.17,SE,135,1.1,0.0,91,0.00,CLR,,0.00,WeatherDisplay:10.37,2013-01-20 05:02:00,
2013-01-19 23:03:00,39.9,37.5,30.17,SE,135,1.1,0.0,91,0.00,CLR,,0.00,WeatherDisplay:10.37,2013-01-20 05:03:00,
2013-01-19 23:04:00,39.9,37.5,30.17,SE,135,1.1,0.0,91,0.00,CLR,,0.00,WeatherDisplay:10.37,2013-01-20 05:04:00,
2013-01-19 23:09:00,39.9,37.5,30.17,West,270,0.0,0.0,91,0.00,CLR,,0.00,WeatherDisplay:10.37,2013-01-20 05:09:00,
2013-01-19 23:14:00,39.7,37.3,30.16,West,270,0.0,0.0,91,0.00,CLR,,0.00,WeatherDisplay:10.37,2013-01-20 05:14:00,
2013-01-19 23:20:00,39.6,37.2,30.16,West,270,0.0,0.0,91,0.00,CLR,,0.00,WeatherDisplay:10.37,2013-01-20 05:20:00,
2013-01-19 23:25:00,39.4,37.0,30.16,West,270,0.0,0.0,91,0.00,CLR,,0.00,WeatherDisplay:10.37,2013-01-20 05:25:00,
2013-01-19 23:30:00,39.0,36.6,30.16,West,270,0.0,0.0,91,0.00,CLR,,0.00,WeatherDisplay:10.37,2013-01-20 05:30:00,
2013-01-19 23:35:00,39.0,36.6,30.17,West,270,0.0,0.0,91,0.00,CLR,,0.00,WeatherDisplay:10.37,2013-01-20 05:35:00,
2013-01-19 23:40:00,38.8,36.4,30.16,West,270,0.0,0.0,91,0.00,CLR,,0.00,WeatherDisplay:10.37,2013-01-20 05:40:00,
2013-01-19 23:45:00,38.7,36.3,30.16,West,270,0.0,0.0,91,0.00,CLR,,0.00,WeatherDisplay:10.37,2013-01-20 05:45:00,
2013-01-19 23:51:00,38.7,36.5,30.17,West,270,1.1,0.0,92,0.00,CLR,,0.00,WeatherDisplay:10.37,2013-01-20 05:51:00,
2013-01-19 23:57:00,38.5,36.4,30.17,West,270,0.0,0.0,92,0.00,CLR,,0.00,WeatherDisplay:10.37,2013-01-20 05:57:00,